createdAt,value
2022-11-18T00:01:17.303Z,11.30
2022-11-18T00:03:45.441Z,11.30
2022-11-18T00:06:15.761Z,11.30
2022-11-18T00:08:43.175Z,11.30
2022-11-18T00:11:38.727Z,11.30
2022-11-18T00:14:20.029Z,11.30
2022-11-18T00:17:01.486Z,11.40
2022-11-18T00:19:31.871Z,11.40
2022-11-18T00:21:59.656Z,11.40
2022-11-18T00:24:27.716Z,11.40
2022-11-18T00:26:55.680Z,11.40
2022-11-18T00:29:23.914Z,11.40
2022-11-18T00:31:51.344Z,11.50
2022-11-18T00:34:19.416Z,11.50
2022-11-18T00:36:48.142Z,11.50
2022-11-18T00:39:19.462Z,11.50
2022-11-18T00:42:06.662Z,11.50
2022-11-18T00:44:34.520Z,11.50
2022-11-18T00:47:02.255Z,11.50
2022-11-18T00:49:29.959Z,11.40
2022-11-18T00:51:57.399Z,11.50
2022-11-18T00:54:24.794Z,11.40
2022-11-18T00:56:52.215Z,11.40
2022-11-18T00:59:20.114Z,11.40
2022-11-18T01:01:49.126Z,11.40
2022-11-18T01:04:17.311Z,11.40
2022-11-18T01:06:44.715Z,11.40
2022-11-18T01:09:11.956Z,11.40
2022-11-18T01:11:58.227Z,11.40
2022-11-18T01:14:26.487Z,11.40
2022-11-18T01:16:55.585Z,11.40
2022-11-18T01:19:23.947Z,11.40
2022-11-18T01:21:51.599Z,11.40
2022-11-18T01:24:19.182Z,11.40
2022-11-18T01:26:46.599Z,11.40
2022-11-18T01:29:14.470Z,11.40
2022-11-18T01:32:01.516Z,11.40
2022-11-18T01:34:29.772Z,11.40
2022-11-18T01:36:58.641Z,11.40
2022-11-18T01:39:26.557Z,11.40
2022-11-18T01:41:54.011Z,11.40
2022-11-18T01:45:00.519Z,11.40
2022-11-18T01:47:35.687Z,11.40
2022-11-18T01:50:05.072Z,11.40
2022-11-18T01:52:34.619Z,11.40
2022-11-18T01:55:11.575Z,11.50
2022-11-18T01:57:40.427Z,11.50
2022-11-18T02:00:08.861Z,11.50
2022-11-18T02:02:38.201Z,11.50
2022-11-18T02:05:07.873Z,11.50
2022-11-18T02:07:40.077Z,11.50
2022-11-18T02:10:09.183Z,11.50
2022-11-18T02:12:37.876Z,11.50
2022-11-18T02:15:06.111Z,11.50
2022-11-18T02:18:04.423Z,11.40
2022-11-18T02:20:40.056Z,11.50
2022-11-18T02:23:37.495Z,11.50
2022-11-18T02:26:20.503Z,11.40
2022-11-18T02:29:10.242Z,11.40
2022-11-18T02:31:58.548Z,11.40
2022-11-18T02:34:47.098Z,11.50
2022-11-18T02:37:35.012Z,11.40
2022-11-18T02:40:22.019Z,11.50
2022-11-18T02:42:54.802Z,11.40
2022-11-18T02:45:23.498Z,11.40
2022-11-18T02:47:53.817Z,11.40
2022-11-18T02:50:25.577Z,11.40
2022-11-18T02:52:57.137Z,11.40
2022-11-18T02:55:27.860Z,11.40
2022-11-18T02:57:57.323Z,11.40
2022-11-18T03:00:24.639Z,11.40
2022-11-18T03:02:52.112Z,11.40
2022-11-18T03:05:36.567Z,11.40
2022-11-18T03:08:12.884Z,11.40
2022-11-18T03:11:09.009Z,11.40
2022-11-18T03:13:47.435Z,11.40
2022-11-18T03:16:23.425Z,11.40
2022-11-18T03:19:05.589Z,11.40
2022-11-18T03:21:40.714Z,11.40
2022-11-18T03:24:19.036Z,11.30
2022-11-18T03:26:52.462Z,11.30
2022-11-18T03:29:25.472Z,11.30
2022-11-18T03:32:05.985Z,11.30
2022-11-18T03:34:45.696Z,11.30
2022-11-18T03:37:16.735Z,11.30
2022-11-18T03:39:52.483Z,11.30
2022-11-18T03:42:32.701Z,11.30
2022-11-18T03:45:06.180Z,11.30
2022-11-18T03:47:41.289Z,11.30
2022-11-18T03:50:21.966Z,11.30
2022-11-18T03:52:50.976Z,11.30
2022-11-18T03:55:23.801Z,11.30
2022-11-18T03:57:54.005Z,11.30
2022-11-18T04:00:21.659Z,11.30
2022-11-18T04:02:51.083Z,11.30
2022-11-18T04:05:19.420Z,11.30
2022-11-18T04:07:49.596Z,11.30
2022-11-18T04:10:22.703Z,11.30
2022-11-18T04:13:06.609Z,11.30
2022-11-18T04:15:38.504Z,11.30
2022-11-18T04:18:07.677Z,11.30
2022-11-18T04:20:37.034Z,11.30
2022-11-18T04:23:05.869Z,11.30
2022-11-18T04:25:33.451Z,11.30
2022-11-18T04:28:01.042Z,11.30
2022-11-18T04:30:28.396Z,11.30
2022-11-18T04:32:55.919Z,11.30
2022-11-18T04:35:23.776Z,11.30
2022-11-18T04:37:51.185Z,11.40
2022-11-18T04:40:18.544Z,11.30
2022-11-18T04:42:45.892Z,11.30
2022-11-18T04:45:13.183Z,11.40
2022-11-18T04:47:40.608Z,11.30
2022-11-18T04:50:08.283Z,11.40
2022-11-18T04:52:35.659Z,11.40
2022-11-18T04:55:03.244Z,11.40
2022-11-18T04:57:30.603Z,11.40
2022-11-18T04:59:57.916Z,11.40
2022-11-18T05:02:25.187Z,11.40
2022-11-18T05:04:52.672Z,11.40
2022-11-18T05:07:20.181Z,11.40
2022-11-18T05:09:47.481Z,11.40
2022-11-18T05:12:34.352Z,11.40
2022-11-18T05:15:01.734Z,11.40
2022-11-18T05:17:29.086Z,11.40
2022-11-18T05:19:56.429Z,11.40
2022-11-18T05:22:23.701Z,11.40
2022-11-18T05:24:51.069Z,11.40
2022-11-18T05:27:18.378Z,11.40
2022-11-18T05:29:45.753Z,11.40
2022-11-18T05:32:13.435Z,11.50
2022-11-18T05:34:42.188Z,11.50
2022-11-18T05:37:09.720Z,11.50
2022-11-18T05:39:37.107Z,11.50
2022-11-18T05:42:23.675Z,11.50
2022-11-18T05:44:56.342Z,11.50
2022-11-18T05:47:26.739Z,11.50
2022-11-18T05:49:54.243Z,11.50
2022-11-18T05:52:21.625Z,11.50
2022-11-18T05:54:50.943Z,11.50
2022-11-18T05:57:18.407Z,11.50
2022-11-18T05:59:45.860Z,11.50
2022-11-18T06:02:18.443Z,11.50
2022-11-18T06:04:57.437Z,11.50
2022-11-18T06:07:37.034Z,11.50
2022-11-18T06:10:06.299Z,11.50
2022-11-18T06:12:41.742Z,11.50
2022-11-18T06:15:27.633Z,11.50
2022-11-18T06:17:57.140Z,11.50
2022-11-18T06:20:24.687Z,11.50
2022-11-18T06:22:56.303Z,11.50
2022-11-18T06:25:24.396Z,11.50
2022-11-18T06:27:53.943Z,11.60
2022-11-18T06:30:21.462Z,11.60
2022-11-18T06:32:48.987Z,11.60
2022-11-18T06:35:16.984Z,11.60
2022-11-18T06:37:46.172Z,11.60
2022-11-18T06:40:13.592Z,11.60
2022-11-18T06:42:59.528Z,11.60
2022-11-18T06:45:27.162Z,11.60
2022-11-18T06:48:00.845Z,11.60
2022-11-18T06:50:28.867Z,11.60
2022-11-18T06:52:59.510Z,11.60
2022-11-18T06:55:27.297Z,11.60
2022-11-18T06:57:56.645Z,11.60
2022-11-18T07:00:24.033Z,11.60
2022-11-18T07:02:51.836Z,11.60
2022-11-18T07:05:19.212Z,11.60
2022-11-18T07:07:46.751Z,11.70
2022-11-18T07:10:15.612Z,11.70
2022-11-18T07:12:43.237Z,11.70
2022-11-18T07:15:10.814Z,11.70
2022-11-18T07:17:38.227Z,11.70
2022-11-18T07:20:06.383Z,11.70
2022-11-18T07:22:33.764Z,11.70
2022-11-18T07:25:01.227Z,11.70
2022-11-18T07:27:28.643Z,11.80
2022-11-18T07:29:56.040Z,11.70
2022-11-18T07:32:23.372Z,11.70
2022-11-18T07:34:50.696Z,11.70
2022-11-18T07:37:18.045Z,11.70
2022-11-18T07:39:45.650Z,11.70
2022-11-18T07:42:13.097Z,11.70
2022-11-18T07:44:40.484Z,11.70
2022-11-18T07:47:07.827Z,11.70
2022-11-18T07:49:35.267Z,11.70
2022-11-18T07:52:02.674Z,11.70
2022-11-18T07:54:30.360Z,11.70
2022-11-18T07:56:57.835Z,11.70
2022-11-18T07:59:25.220Z,11.70
2022-11-18T08:01:52.657Z,11.70
2022-11-18T08:04:19.977Z,11.70
2022-11-18T08:06:47.308Z,11.70
2022-11-18T08:09:15.097Z,11.70
2022-11-18T08:11:42.759Z,11.70
2022-11-18T08:14:10.135Z,11.70
2022-11-18T08:16:37.629Z,11.80
2022-11-18T08:19:05.020Z,11.80
2022-11-18T08:21:32.540Z,11.80
2022-11-18T08:24:00.010Z,11.80
2022-11-18T08:26:27.980Z,11.80
2022-11-18T08:28:55.682Z,11.80
2022-11-18T08:31:25.866Z,11.80
2022-11-18T08:33:58.659Z,11.90
2022-11-18T08:36:31.732Z,11.90
2022-11-18T08:39:00.824Z,11.90
2022-11-18T08:41:34.491Z,11.90
2022-11-18T08:44:02.888Z,11.90
2022-11-18T08:46:30.999Z,12.00
2022-11-18T08:48:58.800Z,12.00
2022-11-18T08:51:27.035Z,12.00
2022-11-18T08:53:54.597Z,12.00
2022-11-18T08:56:23.684Z,12.00
2022-11-18T08:58:52.043Z,12.10
2022-11-18T09:01:19.844Z,12.10
2022-11-18T09:03:48.579Z,12.10
2022-11-18T09:06:19.164Z,12.10
2022-11-18T09:08:47.319Z,12.10
2022-11-18T09:11:24.536Z,12.20
2022-11-18T09:16:44.879Z,12.10
2022-11-18T09:19:45.173Z,12.10
2022-11-18T09:22:00.290Z,12.20
2022-11-18T09:24:28.097Z,12.20
2022-11-18T09:26:55.586Z,12.20
2022-11-18T09:29:26.029Z,12.10
2022-11-18T09:31:53.965Z,12.10
2022-11-18T09:34:22.851Z,12.10
2022-11-18T09:36:50.860Z,12.10
2022-11-18T09:39:18.621Z,12.10
2022-11-18T09:41:48.929Z,12.10
2022-11-18T09:44:39.703Z,12.10
2022-11-18T09:47:28.028Z,12.10
2022-11-18T09:53:25.741Z,12.00
2022-11-18T09:55:54.594Z,12.10
2022-11-18T09:58:34.473Z,12.10
2022-11-18T10:01:03.582Z,12.10
2022-11-18T10:03:33.183Z,12.10
2022-11-18T10:06:03.665Z,12.10
2022-11-18T10:09:09.268Z,12.10
2022-11-18T10:11:58.437Z,12.20
2022-11-18T10:15:10.038Z,12.30
2022-11-18T10:18:04.800Z,12.30
2022-11-18T10:20:53.736Z,12.40
2022-11-18T10:23:26.857Z,12.40
2022-11-18T10:25:54.707Z,12.50
2022-11-18T10:28:26.049Z,12.50
2022-11-18T10:30:53.632Z,12.50
2022-11-18T10:33:27.690Z,12.60
2022-11-18T10:36:16.872Z,12.60
2022-11-18T10:38:49.678Z,12.60
2022-11-18T10:41:20.911Z,12.60
2022-11-18T10:43:51.784Z,12.60
2022-11-18T10:46:27.420Z,12.60
2022-11-18T10:49:09.933Z,12.60
2022-11-18T10:51:48.587Z,12.60
2022-11-18T10:54:16.344Z,12.60
2022-11-18T10:57:13.472Z,12.60
2022-11-18T10:59:53.462Z,12.50
2022-11-18T11:02:32.876Z,12.50
2022-11-18T11:05:04.514Z,12.50
2022-11-18T11:07:33.198Z,12.40
2022-11-18T11:10:07.124Z,12.40
2022-11-18T11:12:37.456Z,12.40
2022-11-18T11:15:16.622Z,12.40
2022-11-18T11:18:17.712Z,12.40
2022-11-18T11:20:45.433Z,12.40
2022-11-18T11:23:20.398Z,12.40
2022-11-18T11:29:21.400Z,12.40
2022-11-18T11:32:10.223Z,12.40
2022-11-18T11:34:51.771Z,12.40
2022-11-18T11:37:43.465Z,12.40
2022-11-18T11:40:40.418Z,12.40
2022-11-18T11:43:25.625Z,12.40
2022-11-18T11:46:08.913Z,12.40
2022-11-18T11:48:44.886Z,12.40
2022-11-18T11:51:21.438Z,12.40
2022-11-18T11:54:04.388Z,12.50
2022-11-18T11:57:05.191Z,12.50
2022-11-18T11:59:55.939Z,12.50
2022-11-18T12:02:38.883Z,12.60
2022-11-18T12:05:27.811Z,12.60
2022-11-18T12:08:19.402Z,12.60
2022-11-18T12:10:53.808Z,12.60
2022-11-18T12:13:24.926Z,12.60
2022-11-18T12:16:18.071Z,12.60
2022-11-18T12:19:02.676Z,12.60
2022-11-18T12:21:47.754Z,12.60
2022-11-18T12:24:17.399Z,12.60
2022-11-18T12:26:47.285Z,12.60
2022-11-18T12:29:21.107Z,12.60
2022-11-18T12:31:54.876Z,12.60
2022-11-18T12:34:34.652Z,12.60
2022-11-18T12:37:25.258Z,12.70
2022-11-18T12:39:55.373Z,12.70
2022-11-18T12:43:14.655Z,12.70
2022-11-18T12:45:43.931Z,12.70
2022-11-18T12:48:38.828Z,12.80
2022-11-18T12:51:15.406Z,12.80
2022-11-18T12:53:47.538Z,12.80
2022-11-18T12:56:17.778Z,12.80
2022-11-18T12:58:46.711Z,12.80
2022-11-18T13:01:18.835Z,12.90
2022-11-18T13:03:46.472Z,12.80
2022-11-18T13:06:29.178Z,12.80
2022-11-18T13:09:05.380Z,12.80
2022-11-18T13:11:44.623Z,12.70
2022-11-18T13:14:51.048Z,12.70
2022-11-18T13:17:58.628Z,12.60
2022-11-18T13:20:31.140Z,12.50
2022-11-18T13:23:35.611Z,12.40
2022-11-18T13:26:12.055Z,12.30
2022-11-18T13:28:47.501Z,12.20
2022-11-18T13:31:14.906Z,12.10
2022-11-18T13:33:42.434Z,12.00
2022-11-18T13:36:20.386Z,12.00
2022-11-18T13:39:02.294Z,11.90
2022-11-18T13:41:33.271Z,11.90
2022-11-18T13:44:18.728Z,11.90
2022-11-18T13:46:51.411Z,11.90
2022-11-18T13:49:27.386Z,11.80
2022-11-18T13:51:56.798Z,11.80
2022-11-18T13:54:27.094Z,11.80
2022-11-18T13:56:54.954Z,11.80
2022-11-18T13:59:24.680Z,11.70
2022-11-18T14:01:55.367Z,11.80
2022-11-18T14:04:25.644Z,11.70
2022-11-18T14:06:53.359Z,11.70
2022-11-18T14:09:25.581Z,11.70
2022-11-18T14:12:06.196Z,11.70
2022-11-18T14:14:35.776Z,11.70
2022-11-18T14:17:18.271Z,11.70
2022-11-18T14:19:47.710Z,11.70
2022-11-18T14:22:24.660Z,11.70
2022-11-18T14:24:57.710Z,11.60
2022-11-18T14:27:51.162Z,11.60
2022-11-18T14:30:35.523Z,11.50
2022-11-18T14:33:09.615Z,11.40
2022-11-18T14:35:41.089Z,11.40
2022-11-18T14:41:08.433Z,11.20
2022-11-18T14:43:36.315Z,11.10
2022-11-18T14:46:07.702Z,11.00
2022-11-18T14:48:35.201Z,10.90
2022-11-18T14:51:02.629Z,10.80
2022-11-18T14:53:30.157Z,10.70
2022-11-18T14:55:59.715Z,10.70
2022-11-18T14:58:27.552Z,10.60
2022-11-18T15:00:55.219Z,10.60
2022-11-18T15:03:22.894Z,10.50
2022-11-18T15:05:50.696Z,10.40
2022-11-18T15:08:18.163Z,10.40
2022-11-18T15:10:45.622Z,10.30
2022-11-18T15:13:13.019Z,10.20
2022-11-18T15:15:40.497Z,10.20
2022-11-18T15:18:09.391Z,10.10
2022-11-18T15:20:36.879Z,10.10
2022-11-18T15:23:04.243Z,10.00
2022-11-18T15:25:31.637Z,10.00
2022-11-18T15:27:59.060Z,9.90
2022-11-18T15:30:26.455Z,9.90
2022-11-18T15:32:53.978Z,9.90
2022-11-18T15:35:21.394Z,9.80
2022-11-18T15:37:48.745Z,9.80
2022-11-18T15:40:16.409Z,9.80
2022-11-18T15:42:50.591Z,9.70
2022-11-18T15:45:20.433Z,9.70
2022-11-18T15:47:47.897Z,9.60
2022-11-18T15:50:15.857Z,9.60
2022-11-18T15:52:43.483Z,9.50
2022-11-18T15:55:10.954Z,9.50
2022-11-18T15:57:38.373Z,9.40
2022-11-18T16:00:06.001Z,9.30
2022-11-18T16:02:39.605Z,9.20
2022-11-18T16:05:07.279Z,9.20
2022-11-18T16:07:34.788Z,9.10
2022-11-18T16:10:20.870Z,9.10
2022-11-18T16:12:48.546Z,9.00
2022-11-18T16:15:35.554Z,9.00
2022-11-18T16:18:03.964Z,8.90
2022-11-18T16:20:31.389Z,8.90
2022-11-18T16:22:58.869Z,8.80
2022-11-18T16:25:28.041Z,8.80
2022-11-18T16:27:58.566Z,8.80
2022-11-18T16:30:49.615Z,8.80
2022-11-18T16:33:17.016Z,8.80
2022-11-18T16:35:48.598Z,8.70
2022-11-18T16:38:16.030Z,8.70
2022-11-18T16:40:43.486Z,8.70
2022-11-18T16:43:11.184Z,8.60
2022-11-18T16:45:38.923Z,8.60
2022-11-18T16:48:06.379Z,8.60
2022-11-18T16:50:33.775Z,8.60
2022-11-18T16:53:01.097Z,8.50
2022-11-18T16:55:29.934Z,8.50
2022-11-18T16:57:57.179Z,8.40
2022-11-18T17:00:50.169Z,8.40
2022-11-18T17:03:12.960Z,8.40
2022-11-18T17:05:40.320Z,8.30
2022-11-18T17:08:07.666Z,8.30
2022-11-18T17:10:35.276Z,8.20
2022-11-18T17:13:02.531Z,8.10
2022-11-18T17:15:29.706Z,8.10
2022-11-18T17:17:57.011Z,8.00
2022-11-18T17:20:24.455Z,8.00
2022-11-18T17:22:52.631Z,7.90
2022-11-18T17:25:20.046Z,7.90
2022-11-18T17:27:47.415Z,7.90
2022-11-18T17:30:15.019Z,7.80
2022-11-18T17:32:43.177Z,7.80
2022-11-18T17:35:10.524Z,7.80
2022-11-18T17:37:37.869Z,7.80
2022-11-18T17:40:05.725Z,7.80
2022-11-18T17:42:33.041Z,7.70
2022-11-18T17:45:00.512Z,7.70
2022-11-18T17:47:27.930Z,7.70
2022-11-18T17:49:55.206Z,7.60
2022-11-18T17:52:22.555Z,7.60
2022-11-18T17:54:49.990Z,7.60
2022-11-18T17:57:17.311Z,7.50
2022-11-18T17:59:44.915Z,7.50
2022-11-18T18:02:12.522Z,7.50
2022-11-18T18:04:40.006Z,7.50
2022-11-18T18:07:07.373Z,7.50
2022-11-18T18:09:34.738Z,7.40
2022-11-18T18:12:22.059Z,7.40
2022-11-18T18:14:49.745Z,7.40
2022-11-18T18:17:17.431Z,7.40
2022-11-18T18:19:44.715Z,7.30
2022-11-18T18:22:12.143Z,7.30
2022-11-18T18:24:39.983Z,7.30
2022-11-18T18:27:07.329Z,7.30
2022-11-18T18:29:34.559Z,7.20
2022-11-18T18:32:03.330Z,7.20
2022-11-18T18:34:30.581Z,7.10
2022-11-18T18:36:57.940Z,7.00
2022-11-18T18:39:25.270Z,7.00
2022-11-18T18:41:52.586Z,7.00
2022-11-18T18:44:20.318Z,6.90
2022-11-18T18:46:47.966Z,6.80
2022-11-18T18:49:20.326Z,6.80
2022-11-18T18:51:49.496Z,6.70
2022-11-18T18:54:19.075Z,6.70
2022-11-18T18:56:46.851Z,6.60
2022-11-18T18:59:14.105Z,6.60
2022-11-18T19:01:41.731Z,6.60
2022-11-18T19:04:13.356Z,6.50
2022-11-18T19:09:28.897Z,6.50
2022-11-18T19:12:15.024Z,6.50
2022-11-18T19:14:42.437Z,6.40
2022-11-18T19:17:12.151Z,6.40
2022-11-18T19:20:00.710Z,6.40
2022-11-18T19:22:32.806Z,6.30
2022-11-18T19:25:00.875Z,6.30
2022-11-18T19:27:29.009Z,6.30
2022-11-18T19:29:56.528Z,6.30
2022-11-18T19:32:24.337Z,6.30
2022-11-18T19:34:51.567Z,6.20
2022-11-18T19:37:18.920Z,6.20
2022-11-18T19:39:46.145Z,6.20
2022-11-18T19:42:13.611Z,6.10
2022-11-18T19:44:41.035Z,6.10
2022-11-18T19:47:08.497Z,6.10
2022-11-18T19:49:35.769Z,6.10
2022-11-18T19:52:03.129Z,6.00
2022-11-18T19:54:30.519Z,6.00
2022-11-18T19:56:58.024Z,6.00
2022-11-18T19:59:25.255Z,6.00
2022-11-18T20:01:52.644Z,6.00
2022-11-18T20:04:20.065Z,6.00
2022-11-18T20:06:47.626Z,5.90
2022-11-18T20:09:14.948Z,5.90
2022-11-18T20:11:44.718Z,5.90
2022-11-18T20:14:12.755Z,5.80
2022-11-18T20:16:40.909Z,5.80
2022-11-18T20:19:13.230Z,5.80
2022-11-18T20:21:43.268Z,5.80
2022-11-18T20:24:15.776Z,5.70
2022-11-18T20:26:44.266Z,5.70
2022-11-18T20:29:12.058Z,5.70
2022-11-18T20:31:39.475Z,5.70
2022-11-18T20:34:07.119Z,5.60
2022-11-18T20:36:36.233Z,5.60
2022-11-18T20:39:06.772Z,5.60
2022-11-18T20:41:36.470Z,5.60
2022-11-18T20:44:04.194Z,5.60
2022-11-18T20:46:33.149Z,5.50
2022-11-18T20:49:00.550Z,5.50
2022-11-18T20:51:28.961Z,5.50
2022-11-18T20:53:57.990Z,5.50
2022-11-18T20:56:27.139Z,5.40
2022-11-18T20:58:57.298Z,5.40
2022-11-18T21:01:27.969Z,5.40
2022-11-18T21:03:57.444Z,5.40
2022-11-18T21:06:27.781Z,5.30
2022-11-18T21:09:00.297Z,5.30
2022-11-18T21:11:28.292Z,5.30
2022-11-18T21:14:18.431Z,5.30
2022-11-18T21:16:49.205Z,5.20
2022-11-18T21:19:16.907Z,5.20
2022-11-18T21:21:44.690Z,5.10
2022-11-18T21:24:14.357Z,5.10
2022-11-18T21:26:41.995Z,5.10
2022-11-18T21:29:11.485Z,5.10
2022-11-18T21:31:38.822Z,5.10
2022-11-18T21:34:06.779Z,5.10
2022-11-18T21:36:34.521Z,5.10
2022-11-18T21:39:03.221Z,5.00
2022-11-18T21:41:30.895Z,5.00
2022-11-18T21:44:05.611Z,5.00
2022-11-18T21:46:35.005Z,5.00
2022-11-18T21:49:03.644Z,5.00
2022-11-18T21:51:32.079Z,5.00
2022-11-18T21:54:00.091Z,5.00
2022-11-18T21:56:30.666Z,5.00
2022-11-18T21:59:00.366Z,5.00
2022-11-18T22:01:30.928Z,5.00
2022-11-18T22:04:00.284Z,5.00
2022-11-18T22:06:33.501Z,4.90
2022-11-18T22:09:02.982Z,4.90
2022-11-18T22:11:30.760Z,4.90
2022-11-18T22:13:58.312Z,4.90
2022-11-18T22:16:26.886Z,4.90
2022-11-18T22:19:02.395Z,4.90
2022-11-18T22:21:31.215Z,4.90
2022-11-18T22:23:59.942Z,4.80
2022-11-18T22:26:28.458Z,4.80
2022-11-18T22:28:57.656Z,4.80
2022-11-18T22:31:27.021Z,4.80
2022-11-18T22:33:55.410Z,4.70
2022-11-18T22:36:24.684Z,4.70
2022-11-18T22:38:52.807Z,4.70
2022-11-18T22:41:42.063Z,4.70
2022-11-18T22:44:10.672Z,4.70
2022-11-18T22:46:39.326Z,4.70
2022-11-18T22:49:07.876Z,4.60
2022-11-18T22:51:37.068Z,4.60
2022-11-18T22:56:54.298Z,4.60
2022-11-18T22:59:21.945Z,4.60
2022-11-18T23:01:51.108Z,4.60
2022-11-18T23:04:18.726Z,4.50
2022-11-18T23:06:46.123Z,4.50
2022-11-18T23:09:13.744Z,4.40
2022-11-18T23:11:59.945Z,4.40
2022-11-18T23:14:27.239Z,4.40
2022-11-18T23:16:54.810Z,4.40
2022-11-18T23:19:22.456Z,4.30
2022-11-18T23:21:50.454Z,4.30
2022-11-18T23:24:19.080Z,4.20
2022-11-18T23:26:46.860Z,4.20
2022-11-18T23:29:15.345Z,4.10
2022-11-18T23:31:44.567Z,4.10
2022-11-18T23:34:14.126Z,4.10
2022-11-18T23:36:41.810Z,4.00
2022-11-18T23:39:09.987Z,4.00
2022-11-18T23:41:37.716Z,4.00
2022-11-18T23:44:05.843Z,4.00
2022-11-18T23:46:33.647Z,3.90
2022-11-18T23:49:01.315Z,3.90
2022-11-18T23:51:28.818Z,3.90
2022-11-18T23:53:57.365Z,3.80
2022-11-18T23:56:27.546Z,3.80
2022-11-18T23:58:56.523Z,3.80
